createdAt,value
2024-01-16T00:00:02.616Z,2.70
2024-01-16T00:02:34.105Z,2.20
2024-01-16T00:05:02.221Z,2.80
2024-01-16T00:07:30.201Z,2.42
2024-01-16T00:09:58.196Z,2.58
2024-01-16T00:12:28.472Z,2.33
2024-01-16T00:14:56.430Z,2.60
2024-01-16T00:17:24.521Z,2.03
2024-01-16T00:19:53.896Z,2.45
2024-01-16T00:22:21.820Z,2.38
2024-01-16T00:24:49.811Z,2.33
2024-01-16T00:27:18.065Z,2.20
2024-01-16T00:29:47.488Z,2.45
2024-01-16T00:32:17.222Z,2.50
2024-01-16T00:34:45.474Z,2.67
2024-01-16T00:37:14.905Z,2.53
2024-01-16T00:39:43.032Z,2.60
2024-01-16T00:42:10.990Z,2.40
2024-01-16T00:44:39.420Z,2.70
2024-01-16T00:47:07.513Z,2.53
2024-01-16T00:49:37.248Z,2.60
2024-01-16T00:52:06.034Z,2.35
2024-01-16T00:54:35.469Z,2.03
2024-01-16T00:57:03.462Z,2.40
2024-01-16T00:59:31.431Z,2.20
2024-01-16T01:01:59.515Z,2.58
2024-01-16T01:04:27.469Z,2.00
2024-01-16T01:06:55.427Z,2.13
2024-01-16T01:09:23.416Z,2.17
2024-01-16T01:11:52.792Z,2.15
2024-01-16T01:14:20.913Z,2.08
2024-01-16T01:16:48.906Z,1.90
2024-01-16T01:19:16.964Z,1.60
2024-01-16T01:21:44.929Z,2.10
2024-01-16T01:24:12.886Z,2.08
2024-01-16T01:26:40.985Z,2.33
2024-01-16T01:29:10.419Z,2.33
2024-01-16T01:31:38.493Z,2.05
2024-01-16T01:34:06.687Z,2.20
2024-01-16T01:36:34.852Z,2.38
2024-01-16T01:39:05.572Z,2.35
2024-01-16T01:41:33.596Z,2.45
2024-01-16T01:44:01.605Z,1.92
2024-01-16T01:46:34.251Z,1.98
2024-01-16T01:49:02.760Z,2.05
2024-01-16T01:51:31.144Z,2.00
2024-01-16T01:54:00.436Z,2.13
2024-01-16T01:56:29.563Z,2.33
2024-01-16T01:58:59.766Z,2.08
2024-01-16T02:01:30.420Z,2.65
2024-01-16T02:04:01.100Z,2.08
2024-01-16T02:06:29.242Z,1.90
2024-01-16T02:08:57.294Z,1.92
2024-01-16T02:11:25.353Z,2.03
2024-01-16T02:13:54.406Z,2.17
2024-01-16T02:16:23.172Z,2.35
2024-01-16T02:18:53.281Z,1.90
2024-01-16T02:21:24.311Z,1.90
2024-01-16T02:23:54.177Z,1.70
2024-01-16T02:26:47.056Z,2.25
2024-01-16T02:29:17.357Z,2.17
2024-01-16T02:31:45.662Z,2.22
2024-01-16T02:34:14.522Z,1.98
2024-01-16T02:36:42.512Z,2.20
2024-01-16T02:39:12.624Z,2.13
2024-01-16T02:41:40.642Z,2.38
2024-01-16T02:44:08.651Z,1.92
2024-01-16T02:46:36.664Z,2.08
2024-01-16T02:49:04.615Z,2.10
2024-01-16T02:51:32.643Z,2.53
2024-01-16T02:54:00.698Z,2.00
2024-01-16T02:56:30.098Z,2.38
2024-01-16T02:58:58.146Z,2.10
2024-01-16T03:01:26.074Z,2.35
2024-01-16T03:03:54.168Z,2.13
2024-01-16T03:06:25.662Z,1.90
2024-01-16T03:08:54.114Z,2.38
2024-01-16T03:11:22.149Z,2.15
2024-01-16T03:13:53.702Z,2.20
2024-01-16T03:16:21.926Z,2.15
2024-01-16T03:18:49.959Z,1.92
2024-01-16T03:21:18.177Z,1.60
2024-01-16T03:23:46.420Z,1.92
2024-01-16T03:26:15.678Z,2.05
2024-01-16T03:28:44.134Z,1.92
2024-01-16T03:31:14.637Z,2.35
2024-01-16T03:33:44.000Z,2.17
2024-01-16T03:36:14.068Z,1.83
2024-01-16T03:38:42.724Z,2.22
2024-01-16T03:41:13.208Z,2.30
2024-01-16T03:43:41.724Z,2.50
2024-01-16T03:46:09.841Z,2.67
2024-01-16T03:48:39.615Z,2.40
2024-01-16T03:51:07.812Z,2.33
2024-01-16T03:53:35.867Z,2.25
2024-01-16T03:56:03.924Z,2.28
2024-01-16T03:58:31.846Z,2.47
2024-01-16T04:00:59.831Z,2.58
2024-01-16T04:03:27.824Z,2.72
2024-01-16T04:05:57.217Z,2.20
2024-01-16T04:08:25.204Z,2.72
2024-01-16T04:10:53.169Z,2.00
2024-01-16T04:13:21.130Z,2.35
2024-01-16T04:15:49.704Z,2.15
2024-01-16T04:18:17.816Z,2.08
2024-01-16T04:20:45.846Z,2.47
2024-01-16T04:23:15.246Z,2.10
2024-01-16T04:25:43.266Z,2.20
2024-01-16T04:28:11.232Z,2.60
2024-01-16T04:30:39.216Z,2.75
2024-01-16T04:33:07.255Z,2.50
2024-01-16T04:35:35.396Z,2.38
2024-01-16T04:38:04.230Z,2.72
2024-01-16T04:40:33.548Z,2.50
2024-01-16T04:43:01.618Z,2.17
2024-01-16T04:45:29.562Z,2.13
2024-01-16T04:47:57.648Z,2.20
2024-01-16T04:50:32.461Z,2.70
2024-01-16T04:53:01.663Z,2.38
2024-01-16T04:55:29.895Z,2.40
2024-01-16T04:58:00.978Z,2.95
2024-01-16T05:00:29.309Z,2.17
2024-01-16T05:02:57.437Z,2.78
2024-01-16T05:05:29.731Z,2.08
2024-01-16T05:07:58.268Z,2.47
2024-01-16T05:10:26.266Z,2.20
2024-01-16T05:12:54.252Z,2.65
2024-01-16T05:15:23.556Z,2.38
2024-01-16T05:17:51.697Z,2.78
2024-01-16T05:20:19.785Z,2.65
2024-01-16T05:22:47.785Z,2.58
2024-01-16T05:25:16.472Z,2.70
2024-01-16T05:27:44.789Z,2.42
2024-01-16T05:30:13.466Z,2.70
2024-01-16T05:32:43.364Z,2.45
2024-01-16T05:35:11.774Z,2.90
2024-01-16T05:37:39.794Z,2.85
2024-01-16T05:40:09.288Z,2.47
2024-01-16T05:42:37.438Z,3.30
2024-01-16T05:45:06.283Z,3.10
2024-01-16T05:47:34.362Z,3.67
2024-01-16T05:50:03.992Z,2.80
2024-01-16T05:52:32.047Z,4.00
2024-01-16T05:55:00.833Z,3.10
2024-01-16T05:57:28.906Z,3.42
2024-01-16T05:59:56.921Z,3.83
2024-01-16T06:02:25.482Z,3.03
2024-01-16T06:04:53.478Z,3.47
2024-01-16T06:07:22.828Z,2.85
2024-01-16T06:09:50.799Z,3.17
2024-01-16T06:12:18.825Z,3.60
2024-01-16T06:14:46.911Z,2.75
2024-01-16T06:17:15.066Z,3.03
2024-01-16T06:19:43.072Z,2.78
2024-01-16T06:22:11.181Z,3.25
2024-01-16T06:24:40.497Z,2.53
2024-01-16T06:27:08.969Z,3.20
2024-01-16T06:29:37.062Z,2.75
2024-01-16T06:32:05.457Z,2.58
2024-01-16T06:34:33.540Z,2.95
2024-01-16T06:37:01.584Z,3.30
2024-01-16T06:39:29.545Z,3.38
2024-01-16T06:41:59.021Z,3.58
2024-01-16T06:44:27.349Z,3.90
2024-01-16T06:46:55.881Z,4.22
2024-01-16T06:49:23.976Z,4.00
2024-01-16T06:51:52.082Z,3.50
2024-01-16T06:54:21.323Z,3.40
2024-01-16T06:56:50.159Z,4.05
2024-01-16T06:59:22.794Z,3.80
2024-01-16T07:01:50.912Z,3.58
2024-01-16T07:04:19.120Z,3.55
2024-01-16T07:06:47.170Z,4.47
2024-01-16T07:09:17.086Z,3.92
2024-01-16T07:11:45.141Z,3.85
2024-01-16T07:14:14.396Z,4.13
2024-01-16T07:16:44.323Z,3.90
2024-01-16T07:19:13.138Z,4.65
2024-01-16T07:21:41.523Z,4.28
2024-01-16T07:24:09.516Z,4.07
2024-01-16T07:26:37.525Z,4.50
2024-01-16T07:29:05.527Z,3.83
2024-01-16T07:31:33.453Z,4.35
2024-01-16T07:34:02.801Z,4.28
2024-01-16T07:36:31.521Z,4.03
2024-01-16T07:38:59.716Z,4.45
2024-01-16T07:41:27.700Z,4.75
2024-01-16T07:43:55.712Z,4.18
2024-01-16T07:46:23.681Z,4.68
2024-01-16T07:48:51.993Z,4.65
2024-01-16T07:51:21.394Z,4.40
2024-01-16T07:53:50.072Z,4.15
2024-01-16T07:56:18.232Z,4.72
2024-01-16T07:58:46.299Z,3.90
2024-01-16T08:01:14.507Z,3.88
2024-01-16T08:03:42.584Z,3.65
2024-01-16T08:06:10.663Z,4.88
2024-01-16T08:08:40.547Z,4.97
2024-01-16T08:11:09.126Z,4.75
2024-01-16T08:13:37.136Z,5.10
2024-01-16T08:16:05.659Z,4.90
2024-01-16T08:18:33.820Z,4.85
2024-01-16T08:21:02.113Z,4.40
2024-01-16T08:23:30.052Z,4.30
2024-01-16T08:25:59.468Z,5.03
2024-01-16T08:28:27.466Z,4.20
2024-01-16T08:30:55.735Z,3.80
2024-01-16T08:33:31.398Z,5.13
2024-01-16T08:36:06.298Z,5.07
2024-01-16T08:38:34.440Z,3.90
2024-01-16T08:41:07.361Z,5.22
2024-01-16T08:46:04.702Z,5.10
2024-01-16T08:48:32.980Z,4.82
2024-01-16T08:51:04.014Z,4.80
2024-01-16T08:53:32.219Z,4.95
2024-01-16T08:56:00.295Z,4.65
2024-01-16T08:58:29.661Z,4.57
2024-01-16T09:00:57.655Z,4.22
2024-01-16T09:03:25.690Z,4.97
2024-01-16T09:05:53.757Z,4.60
2024-01-16T09:08:21.951Z,5.15
2024-01-16T09:10:49.953Z,4.50
2024-01-16T09:13:17.936Z,4.65
2024-01-16T09:15:47.887Z,4.70
2024-01-16T09:18:15.994Z,3.95
2024-01-16T09:20:44.726Z,5.57
2024-01-16T09:23:13.952Z,3.72
2024-01-16T09:25:44.128Z,4.88
2024-01-16T09:28:13.451Z,4.35
2024-01-16T09:30:41.416Z,4.28
2024-01-16T09:33:11.979Z,3.97
2024-01-16T09:35:40.111Z,3.90
2024-01-16T09:38:08.112Z,4.32
2024-01-16T09:40:36.878Z,3.80
2024-01-16T09:43:05.967Z,4.45
2024-01-16T09:45:35.142Z,4.22
2024-01-16T09:48:05.313Z,3.75
2024-01-16T09:50:34.786Z,3.78
2024-01-16T09:53:02.778Z,3.75
2024-01-16T09:55:30.823Z,3.70
2024-01-16T09:58:00.255Z,3.20
2024-01-16T10:00:29.267Z,3.20
2024-01-16T10:03:00.163Z,3.42
2024-01-16T10:05:28.701Z,3.55
2024-01-16T10:07:59.125Z,3.00
2024-01-16T10:10:38.385Z,3.25
2024-01-16T10:13:15.934Z,3.70
2024-01-16T10:15:44.375Z,3.08
2024-01-16T10:18:25.711Z,3.25
2024-01-16T10:20:54.851Z,2.58
2024-01-16T10:23:28.432Z,3.13
2024-01-16T10:26:10.115Z,2.63
2024-01-16T10:28:39.759Z,4.13
2024-01-16T10:31:08.160Z,3.00
2024-01-16T10:33:39.205Z,3.05
2024-01-16T10:36:12.097Z,3.03
2024-01-16T10:38:42.296Z,2.78
2024-01-16T10:41:15.270Z,3.15
2024-01-16T10:43:45.255Z,2.53
2024-01-16T10:46:14.446Z,3.13
2024-01-16T10:48:45.651Z,3.03
2024-01-16T10:51:16.664Z,2.47
2024-01-16T10:53:48.489Z,2.72
2024-01-16T10:56:19.446Z,2.83
2024-01-16T10:58:53.883Z,2.72
2024-01-16T11:01:22.841Z,2.35
2024-01-16T11:03:54.162Z,2.28
2024-01-16T11:06:23.059Z,2.38
2024-01-16T11:08:53.218Z,2.40
2024-01-16T11:11:21.435Z,2.40
2024-01-16T11:13:50.958Z,1.75
2024-01-16T11:16:20.755Z,2.72
2024-01-16T11:18:49.022Z,1.80
2024-01-16T11:21:19.268Z,2.15
2024-01-16T11:23:49.339Z,2.30
2024-01-16T11:26:34.697Z,2.70
2024-01-16T11:29:36.648Z,2.63
2024-01-16T11:32:17.944Z,2.03
2024-01-16T11:34:58.859Z,1.65
2024-01-16T11:37:31.242Z,1.73
2024-01-16T11:40:34.052Z,1.50
2024-01-16T11:43:39.315Z,1.13
2024-01-16T11:46:08.597Z,1.38
2024-01-16T11:48:37.450Z,1.55
2024-01-16T11:51:25.572Z,1.48
2024-01-16T11:53:53.802Z,1.52
2024-01-16T11:57:10.870Z,1.30
2024-01-16T12:00:00.642Z,1.10
2024-01-16T12:02:44.187Z,1.20
2024-01-16T12:07:50.521Z,1.90
2024-01-16T12:10:19.957Z,1.90
2024-01-16T12:12:49.133Z,2.25
2024-01-16T12:15:20.124Z,1.92
2024-01-16T12:17:59.579Z,1.95
2024-01-16T12:20:30.526Z,2.03
2024-01-16T12:23:00.027Z,1.85
2024-01-16T12:25:59.718Z,1.58
2024-01-16T12:28:31.190Z,1.95
2024-01-16T12:31:04.035Z,1.50
2024-01-16T12:33:32.747Z,2.00
2024-01-16T12:36:06.335Z,1.42
2024-01-16T12:38:36.313Z,1.52
2024-01-16T12:41:08.403Z,1.20
2024-01-16T12:43:37.988Z,1.88
2024-01-16T12:46:07.800Z,1.38
2024-01-16T12:48:35.976Z,1.25
2024-01-16T12:51:06.301Z,1.58
2024-01-16T12:53:38.298Z,1.88
2024-01-16T12:56:09.122Z,1.70
2024-01-16T12:58:38.297Z,1.67
2024-01-16T13:01:35.044Z,1.55
2024-01-16T13:04:08.535Z,1.73
2024-01-16T13:06:37.411Z,1.75
2024-01-16T13:09:12.716Z,1.92
2024-01-16T13:11:48.715Z,1.80
2024-01-16T13:14:16.825Z,1.85
2024-01-16T13:16:46.147Z,1.50
2024-01-16T13:19:14.190Z,1.60
2024-01-16T13:21:42.159Z,1.60
2024-01-16T13:24:10.658Z,1.73
2024-01-16T13:26:39.231Z,1.50
2024-01-16T13:29:07.896Z,1.80
2024-01-16T13:31:36.030Z,2.13
2024-01-16T13:34:05.575Z,1.92
2024-01-16T13:36:49.801Z,1.55
2024-01-16T13:39:21.720Z,1.60
2024-01-16T13:41:49.783Z,1.52
2024-01-16T13:44:18.042Z,1.88
2024-01-16T13:46:57.354Z,1.60
2024-01-16T13:49:35.573Z,1.70
2024-01-16T13:52:04.310Z,1.60
2024-01-16T13:54:32.459Z,1.60
2024-01-16T13:57:06.767Z,1.60
2024-01-16T13:59:37.434Z,1.60
2024-01-16T14:02:07.218Z,1.70
2024-01-16T14:04:36.572Z,1.55
2024-01-16T14:07:12.367Z,1.80
2024-01-16T14:09:44.823Z,1.65
2024-01-16T14:12:14.395Z,1.50
2024-01-16T14:14:43.741Z,1.90
2024-01-16T14:17:11.947Z,1.65
2024-01-16T14:19:41.237Z,1.55
2024-01-16T14:22:10.971Z,1.70
2024-01-16T14:24:39.439Z,1.60
2024-01-16T14:27:09.054Z,1.50
2024-01-16T14:29:41.096Z,1.80
2024-01-16T14:32:09.617Z,1.58
2024-01-16T14:34:37.587Z,1.60
2024-01-16T14:37:07.820Z,1.85
2024-01-16T14:39:37.447Z,1.92
2024-01-16T14:42:06.300Z,2.00
2024-01-16T14:44:34.407Z,2.47
2024-01-16T14:47:02.454Z,2.15
2024-01-16T14:49:33.316Z,2.13
2024-01-16T14:52:02.408Z,2.00
2024-01-16T14:54:31.945Z,2.08
2024-01-16T14:57:00.222Z,2.40
2024-01-16T14:59:29.530Z,2.13
2024-01-16T15:01:57.623Z,3.70
2024-01-16T15:04:25.664Z,2.40
2024-01-16T15:06:54.304Z,1.98
2024-01-16T15:09:22.731Z,1.83
2024-01-16T15:11:52.205Z,2.10
2024-01-16T15:14:20.236Z,2.28
2024-01-16T15:16:48.325Z,2.78
2024-01-16T15:19:16.487Z,2.70
2024-01-16T15:21:44.582Z,2.08
2024-01-16T15:24:17.407Z,2.60
2024-01-16T15:26:45.898Z,2.78
2024-01-16T15:29:15.637Z,2.92
2024-01-16T15:31:43.670Z,2.30
2024-01-16T15:34:15.738Z,2.70
2024-01-16T15:36:45.180Z,2.80
2024-01-16T15:39:13.658Z,3.05
2024-01-16T15:41:41.952Z,3.00
2024-01-16T15:44:11.862Z,2.60
2024-01-16T15:47:01.308Z,2.53
2024-01-16T15:49:30.314Z,2.60
2024-01-16T15:52:00.203Z,2.95
2024-01-16T15:54:29.107Z,2.60
2024-01-16T15:56:57.361Z,2.70
2024-01-16T15:59:26.145Z,3.20
2024-01-16T16:01:54.145Z,2.90
2024-01-16T16:04:24.745Z,2.88
2024-01-16T16:06:53.241Z,3.33
2024-01-16T16:09:21.771Z,3.25
2024-01-16T16:11:50.473Z,3.20
2024-01-16T16:14:19.927Z,3.63
2024-01-16T16:16:50.537Z,3.20
2024-01-16T16:19:18.786Z,3.85
2024-01-16T16:21:49.932Z,3.53
2024-01-16T16:24:19.185Z,2.90
2024-01-16T16:26:47.378Z,2.90
2024-01-16T16:29:15.502Z,3.05
2024-01-16T16:31:44.446Z,3.80
2024-01-16T16:34:15.762Z,3.63
2024-01-16T16:36:44.267Z,3.15
2024-01-16T16:39:14.059Z,3.80
2024-01-16T16:41:42.805Z,4.65
2024-01-16T16:44:11.712Z,4.03
2024-01-16T16:46:39.723Z,4.35
2024-01-16T16:49:07.897Z,3.65
2024-01-16T16:51:42.788Z,3.72
2024-01-16T16:54:13.103Z,3.38
2024-01-16T16:56:42.266Z,6.28
2024-01-16T16:59:11.048Z,6.00
2024-01-16T17:01:39.748Z,5.97
2024-01-16T17:04:08.228Z,7.28
2024-01-16T17:06:36.427Z,6.35
2024-01-16T17:09:07.676Z,7.07
2024-01-16T17:11:37.322Z,6.63
2024-01-16T17:14:06.327Z,6.75
2024-01-16T17:16:34.542Z,6.70
2024-01-16T17:19:02.822Z,7.13
2024-01-16T17:21:31.210Z,6.07
2024-01-16T17:24:00.878Z,7.07
2024-01-16T17:26:31.180Z,6.78
2024-01-16T17:29:01.817Z,7.43
2024-01-16T17:31:30.146Z,6.43
2024-01-16T17:33:59.073Z,6.78
2024-01-16T17:36:29.803Z,6.55
2024-01-16T17:39:00.634Z,5.93
2024-01-16T17:41:30.468Z,6.32
2024-01-16T17:44:00.484Z,6.18
2024-01-16T17:46:28.420Z,7.45
2024-01-16T17:48:57.796Z,7.30
2024-01-16T17:51:26.302Z,6.80
2024-01-16T17:53:54.636Z,6.65
2024-01-16T17:56:25.358Z,6.20
2024-01-16T17:58:54.960Z,6.20
2024-01-16T18:01:24.482Z,6.68
2024-01-16T18:03:56.371Z,6.70
2024-01-16T18:06:24.894Z,7.45
2024-01-16T18:08:53.181Z,5.90
2024-01-16T18:11:22.061Z,6.07
2024-01-16T18:13:50.096Z,7.03
2024-01-16T18:16:18.384Z,7.47
2024-01-16T18:18:48.114Z,6.68
2024-01-16T18:21:16.991Z,7.20
2024-01-16T18:23:45.053Z,6.60
2024-01-16T18:26:14.578Z,7.45
2024-01-16T18:28:42.597Z,7.70
2024-01-16T18:31:14.051Z,7.28
2024-01-16T18:33:42.416Z,7.75
2024-01-16T18:36:11.902Z,6.93
2024-01-16T18:38:41.527Z,6.53
2024-01-16T18:41:10.136Z,6.20
2024-01-16T18:43:38.316Z,6.13
2024-01-16T18:46:07.072Z,6.53
2024-01-16T18:48:35.906Z,6.43
2024-01-16T18:51:05.654Z,6.40
2024-01-16T18:53:35.190Z,7.15
2024-01-16T18:56:06.660Z,7.10
2024-01-16T18:58:34.734Z,7.05
2024-01-16T19:01:02.932Z,8.02
2024-01-16T19:03:31.844Z,7.43
2024-01-16T19:06:02.890Z,7.50
2024-01-16T19:08:32.363Z,7.72
2024-01-16T19:11:02.139Z,6.78
2024-01-16T19:13:32.871Z,7.45
2024-01-16T19:16:03.247Z,6.80
2024-01-16T19:18:32.371Z,7.72
2024-01-16T19:21:05.077Z,8.15
2024-01-16T19:23:33.504Z,8.57
2024-01-16T19:26:05.791Z,9.00
2024-01-16T19:28:34.988Z,8.90
2024-01-16T19:31:06.106Z,8.32
2024-01-16T19:33:36.332Z,10.48
2024-01-16T19:36:06.747Z,9.77
2024-01-16T19:38:36.799Z,9.35
2024-01-16T19:41:11.626Z,9.40
2024-01-16T19:43:39.648Z,9.50
2024-01-16T19:46:10.448Z,9.95
2024-01-16T19:48:44.491Z,9.15
2024-01-16T19:51:13.247Z,10.32
2024-01-16T19:53:41.460Z,10.50
2024-01-16T19:56:11.525Z,10.98
2024-01-16T19:58:40.070Z,10.55
2024-01-16T20:01:09.320Z,10.90
2024-01-16T20:03:42.090Z,11.55
2024-01-16T20:06:13.530Z,11.75
2024-01-16T20:08:41.679Z,11.27
2024-01-16T20:11:11.024Z,11.25
2024-01-16T20:13:39.037Z,11.45
2024-01-16T20:16:08.797Z,11.50
2024-01-16T20:18:36.988Z,11.07
2024-01-16T20:21:05.345Z,12.45
2024-01-16T20:23:33.502Z,11.38
2024-01-16T20:26:01.859Z,11.45
2024-01-16T20:28:31.154Z,11.73
2024-01-16T20:30:59.164Z,11.40
2024-01-16T20:33:27.362Z,10.60
2024-01-16T20:35:55.530Z,10.65
2024-01-16T20:38:23.586Z,10.90
2024-01-16T20:40:51.679Z,10.90
2024-01-16T20:43:19.866Z,11.02
2024-01-16T20:45:49.200Z,10.98
2024-01-16T20:48:17.372Z,10.48
2024-01-16T20:50:45.361Z,11.00
2024-01-16T20:53:13.617Z,11.57
2024-01-16T20:55:41.585Z,11.77
2024-01-16T20:58:10.070Z,12.02
2024-01-16T21:00:38.058Z,12.43
2024-01-16T21:03:11.359Z,12.65
2024-01-16T21:05:40.710Z,13.82
2024-01-16T21:08:11.013Z,13.35
2024-01-16T21:10:39.189Z,13.50
2024-01-16T21:13:07.548Z,14.70
2024-01-16T21:15:35.825Z,14.43
2024-01-16T21:18:05.017Z,14.75
2024-01-16T21:20:35.400Z,15.18
2024-01-16T21:23:03.535Z,14.55
2024-01-16T21:25:31.666Z,14.73
2024-01-16T21:27:59.791Z,14.68
2024-01-16T21:30:28.191Z,15.25
2024-01-16T21:32:56.553Z,14.70
2024-01-16T21:35:24.637Z,14.45
2024-01-16T21:37:54.429Z,13.82
2024-01-16T21:40:22.493Z,15.05
2024-01-16T21:42:50.550Z,15.13
2024-01-16T21:45:18.960Z,15.27
2024-01-16T21:47:47.478Z,16.20
2024-01-16T21:50:22.624Z,14.75
2024-01-16T21:55:28.200Z,14.50
2024-01-16T21:57:57.104Z,14.77
2024-01-16T22:00:25.130Z,13.88
2024-01-16T22:02:57.944Z,13.88
2024-01-16T22:05:27.706Z,13.52
2024-01-16T22:07:55.875Z,14.05
2024-01-16T22:10:25.358Z,12.98
2024-01-16T22:12:53.400Z,13.95
2024-01-16T22:15:21.717Z,13.95
2024-01-16T22:17:49.797Z,12.70
2024-01-16T22:20:18.004Z,13.43
2024-01-16T22:22:46.042Z,13.85
2024-01-16T22:25:14.513Z,12.60
2024-01-16T22:27:43.855Z,11.45
2024-01-16T22:30:13.079Z,12.00
2024-01-16T22:32:41.317Z,11.73
2024-01-16T22:35:10.060Z,11.02
2024-01-16T22:37:39.393Z,10.60
2024-01-16T22:40:11.443Z,10.98
2024-01-16T22:42:39.665Z,11.25
2024-01-16T22:45:10.148Z,10.82
2024-01-16T22:47:39.305Z,11.15
2024-01-16T22:50:08.561Z,10.18
2024-01-16T22:52:41.736Z,12.18
2024-01-16T22:55:10.300Z,12.55
2024-01-16T22:57:38.677Z,13.02
2024-01-16T23:00:19.194Z,12.38
2024-01-16T23:02:48.402Z,11.30
2024-01-16T23:05:18.383Z,11.60
2024-01-16T23:07:46.547Z,12.00
2024-01-16T23:10:16.128Z,12.13
2024-01-16T23:12:45.099Z,11.15
2024-01-16T23:15:16.454Z,12.23
2024-01-16T23:17:44.796Z,11.95
2024-01-16T23:20:15.343Z,11.73
2024-01-16T23:22:44.091Z,10.93
2024-01-16T23:25:13.028Z,11.35
2024-01-16T23:27:42.269Z,12.40
2024-01-16T23:30:12.428Z,11.02
2024-01-16T23:32:41.974Z,11.82
2024-01-16T23:35:10.687Z,11.93
2024-01-16T23:37:41.153Z,10.80
2024-01-16T23:40:13.284Z,11.57
2024-01-16T23:42:42.551Z,10.98
2024-01-16T23:45:20.525Z,11.27
2024-01-16T23:47:56.885Z,10.55
2024-01-16T23:50:25.064Z,11.18
2024-01-16T23:52:54.145Z,10.35
2024-01-16T23:55:22.550Z,11.05
2024-01-16T23:57:50.658Z,11.00
